Ravenswood, Illinois
Current Conditions -  °F | °C
As of 6:51 PM on Monday 22 Dec 2014 (Local Time) from KORD Reporting Station
Light Rain Light Rain  
Wind Chill: 32°   Ceiling: 600
Heat Index: 40°   Visibility: 4mi
Dew Point: 38°   Wind: 14mph
Humidity: 93%   Direction: 110°ESE
Pressure: 29.66"   Gusts: NA
Location:  41.9735°N, 87.7018°W
Report Text: KORD 230051Z 11012KT 4SM -RA BR OVC006 04/03 A2966 RMK AO2 SLP048 P0004 T00440033
Loading
Personal Weather Stations






























Interactive Weather Map New forecast layout! Learn more

10-Day Weather Forecast

Advertisements
Track Severe Weather on mobile